sensor_id;sensor_type;location;lat;lon;timestamp;P1;durP1;ratioP1;P2;durP2;ratioP2
76063;SDS011;64762;52.006;8.424;2023-06-22T00:01:21;12.05;;;7.32;;
76063;SDS011;64762;52.006;8.424;2023-06-22T00:03:49;12.38;;;7.15;;
76063;SDS011;64762;52.006;8.424;2023-06-22T00:06:15;11.05;;;6.82;;
76063;SDS011;64762;52.006;8.424;2023-06-22T00:08:40;10.85;;;6.82;;
76063;SDS011;64762;52.006;8.424;2023-06-22T00:11:06;13.67;;;8.33;;
76063;SDS011;64762;52.006;8.424;2023-06-22T00:13:31;17.80;;;8.97;;
76063;SDS011;64762;52.006;8.424;2023-06-22T00:15:56;11.77;;;7.97;;
76063;SDS011;64762;52.006;8.424;2023-06-22T00:18:22;11.30;;;8.00;;
76063;SDS011;64762;52.006;8.424;2023-06-22T00:20:47;12.17;;;8.03;;
76063;SDS011;64762;52.006;8.424;2023-06-22T00:23:12;13.87;;;7.07;;
76063;SDS011;64762;52.006;8.424;2023-06-22T00:25:40;10.63;;;7.18;;
76063;SDS011;64762;52.006;8.424;2023-06-22T00:28:06;11.63;;;7.53;;
76063;SDS011;64762;52.006;8.424;2023-06-22T00:30:32;13.05;;;8.25;;
76063;SDS011;64762;52.006;8.424;2023-06-22T00:32:58;13.73;;;9.10;;
76063;SDS011;64762;52.006;8.424;2023-06-22T00:35:24;19.20;;;11.55;;
76063;SDS011;64762;52.006;8.424;2023-06-22T00:37:57;17.83;;;11.75;;
76063;SDS011;64762;52.006;8.424;2023-06-22T00:40:25;20.25;;;11.82;;
76063;SDS011;64762;52.006;8.424;2023-06-22T00:43:00;14.40;;;9.60;;
76063;SDS011;64762;52.006;8.424;2023-06-22T00:45:25;19.30;;;11.73;;
76063;SDS011;64762;52.006;8.424;2023-06-22T00:47:52;16.55;;;11.52;;
76063;SDS011;64762;52.006;8.424;2023-06-22T00:50:19;18.70;;;12.02;;
76063;SDS011;64762;52.006;8.424;2023-06-22T00:52:53;18.80;;;11.57;;
76063;SDS011;64762;52.006;8.424;2023-06-22T00:55:21;17.48;;;11.02;;
76063;SDS011;64762;52.006;8.424;2023-06-22T00:57:47;19.10;;;11.35;;
76063;SDS011;64762;52.006;8.424;2023-06-22T01:00:13;17.23;;;11.05;;
76063;SDS011;64762;52.006;8.424;2023-06-22T01:02:40;19.80;;;12.55;;
76063;SDS011;64762;52.006;8.424;2023-06-22T01:05:06;20.63;;;11.52;;
76063;SDS011;64762;52.006;8.424;2023-06-22T01:07:34;22.33;;;13.65;;
76063;SDS011;64762;52.006;8.424;2023-06-22T01:10:03;19.10;;;12.32;;
76063;SDS011;64762;52.006;8.424;2023-06-22T01:12:33;19.60;;;12.38;;
76063;SDS011;64762;52.006;8.424;2023-06-22T01:15:18;18.42;;;11.35;;
76063;SDS011;64762;52.006;8.424;2023-06-22T01:17:46;20.60;;;13.13;;
76063;SDS011;64762;52.006;8.424;2023-06-22T01:20:13;19.63;;;11.88;;
76063;SDS011;64762;52.006;8.424;2023-06-22T01:23:26;20.77;;;13.50;;
76063;SDS011;64762;52.006;8.424;2023-06-22T01:25:52;21.08;;;13.38;;
76063;SDS011;64762;52.006;8.424;2023-06-22T01:28:41;21.52;;;13.45;;
76063;SDS011;64762;52.006;8.424;2023-06-22T01:31:15;20.60;;;12.95;;
76063;SDS011;64762;52.006;8.424;2023-06-22T01:33:44;21.42;;;13.63;;
76063;SDS011;64762;52.006;8.424;2023-06-22T01:36:10;20.65;;;13.30;;
76063;SDS011;64762;52.006;8.424;2023-06-22T01:38:35;19.80;;;14.15;;
76063;SDS011;64762;52.006;8.424;2023-06-22T01:41:02;22.02;;;14.07;;
76063;SDS011;64762;52.006;8.424;2023-06-22T01:43:28;20.73;;;13.88;;
76063;SDS011;64762;52.006;8.424;2023-06-22T01:45:54;21.88;;;14.13;;
76063;SDS011;64762;52.006;8.424;2023-06-22T01:48:20;24.08;;;14.27;;
76063;SDS011;64762;52.006;8.424;2023-06-22T01:50:46;26.10;;;14.65;;
76063;SDS011;64762;52.006;8.424;2023-06-22T01:53:12;24.23;;;14.43;;
76063;SDS011;64762;52.006;8.424;2023-06-22T01:55:37;20.73;;;14.47;;
76063;SDS011;64762;52.006;8.424;2023-06-22T02:01:09;23.38;;;15.57;;
76063;SDS011;64762;52.006;8.424;2023-06-22T02:03:37;22.20;;;14.73;;
76063;SDS011;64762;52.006;8.424;2023-06-22T02:06:06;20.90;;;14.10;;
76063;SDS011;64762;52.006;8.424;2023-06-22T02:08:40;21.70;;;14.40;;
76063;SDS011;64762;52.006;8.424;2023-06-22T02:11:06;23.55;;;14.90;;
76063;SDS011;64762;52.006;8.424;2023-06-22T02:13:33;28.10;;;14.55;;
76063;SDS011;64762;52.006;8.424;2023-06-22T02:15:59;22.65;;;14.70;;
76063;SDS011;64762;52.006;8.424;2023-06-22T02:18:25;21.77;;;13.98;;
76063;SDS011;64762;52.006;8.424;2023-06-22T02:20:50;21.70;;;14.20;;
76063;SDS011;64762;52.006;8.424;2023-06-22T02:23:15;21.60;;;13.93;;
76063;SDS011;64762;52.006;8.424;2023-06-22T02:25:41;25.47;;;15.97;;
76063;SDS011;64762;52.006;8.424;2023-06-22T02:28:09;27.77;;;15.93;;
76063;SDS011;64762;52.006;8.424;2023-06-22T02:30:34;23.00;;;15.07;;
76063;SDS011;64762;52.006;8.424;2023-06-22T02:32:59;25.93;;;14.40;;
76063;SDS011;64762;52.006;8.424;2023-06-22T02:35:25;24.70;;;15.27;;
76063;SDS011;64762;52.006;8.424;2023-06-22T02:37:51;23.85;;;14.00;;
76063;SDS011;64762;52.006;8.424;2023-06-22T02:40:17;23.73;;;13.70;;
76063;SDS011;64762;52.006;8.424;2023-06-22T02:42:42;26.97;;;15.37;;
76063;SDS011;64762;52.006;8.424;2023-06-22T02:45:07;26.77;;;15.20;;
76063;SDS011;64762;52.006;8.424;2023-06-22T02:47:33;21.20;;;14.55;;
76063;SDS011;64762;52.006;8.424;2023-06-22T02:49:58;25.80;;;15.10;;
76063;SDS011;64762;52.006;8.424;2023-06-22T02:52:23;21.00;;;14.00;;
76063;SDS011;64762;52.006;8.424;2023-06-22T02:54:49;23.10;;;15.03;;
76063;SDS011;64762;52.006;8.424;2023-06-22T02:57:14;24.13;;;15.13;;
76063;SDS011;64762;52.006;8.424;2023-06-22T02:59:40;25.20;;;14.20;;
76063;SDS011;64762;52.006;8.424;2023-06-22T03:02:06;22.42;;;14.40;;
76063;SDS011;64762;52.006;8.424;2023-06-22T03:04:32;20.73;;;13.83;;
76063;SDS011;64762;52.006;8.424;2023-06-22T03:06:57;23.07;;;14.60;;
76063;SDS011;64762;52.006;8.424;2023-06-22T03:09:26;22.17;;;14.05;;
76063;SDS011;64762;52.006;8.424;2023-06-22T03:11:52;20.92;;;13.32;;
76063;SDS011;64762;52.006;8.424;2023-06-22T03:14:18;23.97;;;13.50;;
76063;SDS011;64762;52.006;8.424;2023-06-22T03:16:43;22.07;;;14.27;;
76063;SDS011;64762;52.006;8.424;2023-06-22T03:19:08;23.20;;;13.17;;
76063;SDS011;64762;52.006;8.424;2023-06-22T03:21:33;19.30;;;12.97;;
76063;SDS011;64762;52.006;8.424;2023-06-22T03:23:59;23.70;;;14.40;;
76063;SDS011;64762;52.006;8.424;2023-06-22T03:26:24;20.20;;;13.63;;
76063;SDS011;64762;52.006;8.424;2023-06-22T03:28:51;19.63;;;13.07;;
76063;SDS011;64762;52.006;8.424;2023-06-22T03:31:17;24.20;;;14.10;;
76063;SDS011;64762;52.006;8.424;2023-06-22T03:33:46;21.10;;;14.20;;
76063;SDS011;64762;52.006;8.424;2023-06-22T03:36:11;22.57;;;14.80;;
76063;SDS011;64762;52.006;8.424;2023-06-22T03:38:36;22.67;;;12.97;;
76063;SDS011;64762;52.006;8.424;2023-06-22T03:41:02;23.97;;;15.20;;
76063;SDS011;64762;52.006;8.424;2023-06-22T03:43:27;23.50;;;14.43;;
76063;SDS011;64762;52.006;8.424;2023-06-22T03:45:53;21.30;;;14.45;;
76063;SDS011;64762;52.006;8.424;2023-06-22T03:48:18;25.63;;;15.07;;
76063;SDS011;64762;52.006;8.424;2023-06-22T03:50:43;26.27;;;15.90;;
76063;SDS011;64762;52.006;8.424;2023-06-22T03:53:09;21.45;;;13.02;;
76063;SDS011;64762;52.006;8.424;2023-06-22T03:55:35;24.17;;;15.68;;
76063;SDS011;64762;52.006;8.424;2023-06-22T03:58:01;23.10;;;14.77;;
76063;SDS011;64762;52.006;8.424;2023-06-22T04:00:30;20.83;;;14.73;;
76063;SDS011;64762;52.006;8.424;2023-06-22T04:02:57;23.73;;;13.98;;
76063;SDS011;64762;52.006;8.424;2023-06-22T04:05:23;24.52;;;14.52;;
76063;SDS011;64762;52.006;8.424;2023-06-22T04:07:49;26.48;;;15.77;;
76063;SDS011;64762;52.006;8.424;2023-06-22T04:10:14;23.97;;;14.77;;
76063;SDS011;64762;52.006;8.424;2023-06-22T04:12:45;23.08;;;14.20;;
76063;SDS011;64762;52.006;8.424;2023-06-22T04:15:11;25.08;;;14.73;;
76063;SDS011;64762;52.006;8.424;2023-06-22T04:17:37;26.33;;;15.23;;
76063;SDS011;64762;52.006;8.424;2023-06-22T04:20:02;24.13;;;12.97;;
76063;SDS011;64762;52.006;8.424;2023-06-22T04:22:28;22.65;;;15.32;;
76063;SDS011;64762;52.006;8.424;2023-06-22T04:24:55;24.80;;;14.52;;
76063;SDS011;64762;52.006;8.424;2023-06-22T04:27:20;22.60;;;14.73;;
76063;SDS011;64762;52.006;8.424;2023-06-22T04:29:48;21.58;;;14.23;;
76063;SDS011;64762;52.006;8.424;2023-06-22T04:32:14;23.50;;;15.18;;
76063;SDS011;64762;52.006;8.424;2023-06-22T04:34:40;24.90;;;13.68;;
76063;SDS011;64762;52.006;8.424;2023-06-22T04:37:05;25.47;;;15.10;;
76063;SDS011;64762;52.006;8.424;2023-06-22T04:39:31;24.20;;;14.45;;
76063;SDS011;64762;52.006;8.424;2023-06-22T04:41:56;25.00;;;14.43;;
76063;SDS011;64762;52.006;8.424;2023-06-22T04:44:25;27.80;;;15.85;;
76063;SDS011;64762;52.006;8.424;2023-06-22T04:46:53;23.17;;;14.43;;
76063;SDS011;64762;52.006;8.424;2023-06-22T04:49:34;24.80;;;15.50;;
76063;SDS011;64762;52.006;8.424;2023-06-22T04:52:03;19.98;;;13.25;;
76063;SDS011;64762;52.006;8.424;2023-06-22T04:54:29;24.17;;;15.43;;
76063;SDS011;64762;52.006;8.424;2023-06-22T04:56:58;22.30;;;14.75;;
76063;SDS011;64762;52.006;8.424;2023-06-22T04:59:35;22.23;;;15.18;;
76063;SDS011;64762;52.006;8.424;2023-06-22T05:02:01;24.30;;;14.80;;
76063;SDS011;64762;52.006;8.424;2023-06-22T05:04:28;24.48;;;15.35;;
76063;SDS011;64762;52.006;8.424;2023-06-22T05:06:58;22.55;;;14.68;;
76063;SDS011;64762;52.006;8.424;2023-06-22T05:09:28;23.90;;;15.15;;
76063;SDS011;64762;52.006;8.424;2023-06-22T05:11:54;25.60;;;16.02;;
76063;SDS011;64762;52.006;8.424;2023-06-22T05:14:22;27.60;;;16.20;;
76063;SDS011;64762;52.006;8.424;2023-06-22T05:16:48;24.08;;;14.82;;
76063;SDS011;64762;52.006;8.424;2023-06-22T05:19:13;24.38;;;15.63;;
76063;SDS011;64762;52.006;8.424;2023-06-22T05:21:39;21.87;;;14.67;;
76063;SDS011;64762;52.006;8.424;2023-06-22T05:24:04;26.47;;;15.70;;
76063;SDS011;64762;52.006;8.424;2023-06-22T05:26:30;23.52;;;15.63;;
76063;SDS011;64762;52.006;8.424;2023-06-22T05:28:57;25.08;;;16.02;;
76063;SDS011;64762;52.006;8.424;2023-06-22T05:31:22;26.48;;;14.98;;
76063;SDS011;64762;52.006;8.424;2023-06-22T05:33:48;27.17;;;16.13;;
76063;SDS011;64762;52.006;8.424;2023-06-22T05:36:16;23.75;;;15.15;;
76063;SDS011;64762;52.006;8.424;2023-06-22T05:38:42;23.52;;;15.15;;
76063;SDS011;64762;52.006;8.424;2023-06-22T05:41:08;21.35;;;13.80;;
76063;SDS011;64762;52.006;8.424;2023-06-22T05:43:34;25.23;;;16.05;;
76063;SDS011;64762;52.006;8.424;2023-06-22T05:46:00;22.63;;;15.35;;
76063;SDS011;64762;52.006;8.424;2023-06-22T05:48:26;25.73;;;16.88;;
76063;SDS011;64762;52.006;8.424;2023-06-22T05:50:52;24.13;;;15.02;;
76063;SDS011;64762;52.006;8.424;2023-06-22T05:53:18;24.30;;;15.23;;
76063;SDS011;64762;52.006;8.424;2023-06-22T05:55:43;27.25;;;16.60;;
76063;SDS011;64762;52.006;8.424;2023-06-22T05:58:09;24.60;;;16.20;;
76063;SDS011;64762;52.006;8.424;2023-06-22T06:00:34;24.42;;;14.88;;
76063;SDS011;64762;52.006;8.424;2023-06-22T06:03:00;23.83;;;15.07;;
76063;SDS011;64762;52.006;8.424;2023-06-22T06:05:32;27.85;;;15.05;;
76063;SDS011;64762;52.006;8.424;2023-06-22T06:07:59;27.13;;;15.73;;
76063;SDS011;64762;52.006;8.424;2023-06-22T06:10:29;25.73;;;15.93;;
76063;SDS011;64762;52.006;8.424;2023-06-22T06:12:55;23.97;;;15.97;;
76063;SDS011;64762;52.006;8.424;2023-06-22T06:15:20;24.75;;;14.55;;
76063;SDS011;64762;52.006;8.424;2023-06-22T06:17:50;23.52;;;14.77;;
76063;SDS011;64762;52.006;8.424;2023-06-22T06:20:19;23.38;;;13.40;;
76063;SDS011;64762;52.006;8.424;2023-06-22T06:22:46;22.40;;;14.35;;
76063;SDS011;64762;52.006;8.424;2023-06-22T06:25:12;22.15;;;13.90;;
76063;SDS011;64762;52.006;8.424;2023-06-22T06:27:41;21.58;;;13.90;;
76063;SDS011;64762;52.006;8.424;2023-06-22T06:30:08;21.98;;;14.60;;
76063;SDS011;64762;52.006;8.424;2023-06-22T06:32:35;23.52;;;14.52;;
76063;SDS011;64762;52.006;8.424;2023-06-22T06:35:00;21.37;;;14.63;;
76063;SDS011;64762;52.006;8.424;2023-06-22T06:37:26;26.70;;;14.50;;
76063;SDS011;64762;52.006;8.424;2023-06-22T06:39:53;24.10;;;14.63;;
76063;SDS011;64762;52.006;8.424;2023-06-22T06:42:18;22.30;;;13.27;;
76063;SDS011;64762;52.006;8.424;2023-06-22T06:44:44;21.95;;;13.10;;
76063;SDS011;64762;52.006;8.424;2023-06-22T06:47:10;19.58;;;12.15;;
76063;SDS011;64762;52.006;8.424;2023-06-22T06:49:35;18.08;;;12.18;;
76063;SDS011;64762;52.006;8.424;2023-06-22T06:52:01;18.17;;;12.03;;
76063;SDS011;64762;52.006;8.424;2023-06-22T06:54:26;19.65;;;12.45;;
76063;SDS011;64762;52.006;8.424;2023-06-22T06:56:52;19.42;;;11.98;;
76063;SDS011;64762;52.006;8.424;2023-06-22T06:59:17;19.60;;;11.50;;
76063;SDS011;64762;52.006;8.424;2023-06-22T07:01:43;17.77;;;12.33;;
76063;SDS011;64762;52.006;8.424;2023-06-22T07:04:09;20.85;;;11.48;;
76063;SDS011;64762;52.006;8.424;2023-06-22T07:06:34;20.37;;;11.60;;
76063;SDS011;64762;52.006;8.424;2023-06-22T07:09:00;18.30;;;11.93;;
76063;SDS011;64762;52.006;8.424;2023-06-22T07:11:25;20.88;;;11.90;;
76063;SDS011;64762;52.006;8.424;2023-06-22T07:13:51;17.85;;;11.20;;
76063;SDS011;64762;52.006;8.424;2023-06-22T07:16:17;17.90;;;11.00;;
76063;SDS011;64762;52.006;8.424;2023-06-22T07:18:43;19.02;;;12.05;;
76063;SDS011;64762;52.006;8.424;2023-06-22T07:21:08;17.27;;;10.47;;
76063;SDS011;64762;52.006;8.424;2023-06-22T07:23:34;20.00;;;12.05;;
76063;SDS011;64762;52.006;8.424;2023-06-22T07:25:59;17.90;;;11.35;;
76063;SDS011;64762;52.006;8.424;2023-06-22T07:28:26;17.27;;;10.98;;
76063;SDS011;64762;52.006;8.424;2023-06-22T07:30:52;16.92;;;11.00;;
76063;SDS011;64762;52.006;8.424;2023-06-22T07:33:17;18.73;;;11.93;;
76063;SDS011;64762;52.006;8.424;2023-06-22T07:35:42;16.77;;;11.27;;
76063;SDS011;64762;52.006;8.424;2023-06-22T07:38:09;19.90;;;11.27;;
76063;SDS011;64762;52.006;8.424;2023-06-22T07:40:34;15.57;;;10.20;;
76063;SDS011;64762;52.006;8.424;2023-06-22T07:43:00;18.10;;;11.57;;
76063;SDS011;64762;52.006;8.424;2023-06-22T07:45:25;15.65;;;11.20;;
76063;SDS011;64762;52.006;8.424;2023-06-22T07:47:51;20.47;;;11.77;;
76063;SDS011;64762;52.006;8.424;2023-06-22T07:50:16;17.07;;;11.10;;
76063;SDS011;64762;52.006;8.424;2023-06-22T07:52:41;16.65;;;11.35;;
76063;SDS011;64762;52.006;8.424;2023-06-22T07:55:07;18.70;;;12.20;;
76063;SDS011;64762;52.006;8.424;2023-06-22T07:57:32;17.08;;;11.70;;
76063;SDS011;64762;52.006;8.424;2023-06-22T08:00:02;17.50;;;11.55;;
76063;SDS011;64762;52.006;8.424;2023-06-22T08:02:38;15.95;;;10.98;;
76063;SDS011;64762;52.006;8.424;2023-06-22T08:05:04;18.13;;;11.77;;
76063;SDS011;64762;52.006;8.424;2023-06-22T08:07:29;17.45;;;10.45;;
76063;SDS011;64762;52.006;8.424;2023-06-22T08:09:57;20.08;;;11.40;;
76063;SDS011;64762;52.006;8.424;2023-06-22T08:12:23;19.23;;;12.60;;
76063;SDS011;64762;52.006;8.424;2023-06-22T08:14:48;17.80;;;11.17;;
76063;SDS011;64762;52.006;8.424;2023-06-22T08:17:14;18.20;;;11.98;;
76063;SDS011;64762;52.006;8.424;2023-06-22T08:19:40;19.35;;;11.57;;
76063;SDS011;64762;52.006;8.424;2023-06-22T08:22:06;17.83;;;10.93;;
76063;SDS011;64762;52.006;8.424;2023-06-22T08:24:31;21.77;;;10.73;;
76063;SDS011;64762;52.006;8.424;2023-06-22T08:26:56;18.03;;;11.07;;
76063;SDS011;64762;52.006;8.424;2023-06-22T08:29:21;17.93;;;12.17;;
76063;SDS011;64762;52.006;8.424;2023-06-22T09:19:40;25.25;;;14.27;;
76063;SDS011;64762;52.006;8.424;2023-06-22T09:22:05;21.27;;;14.50;;
76063;SDS011;64762;52.006;8.424;2023-06-22T09:24:31;22.25;;;14.15;;
76063;SDS011;64762;52.006;8.424;2023-06-22T09:26:57;21.83;;;12.95;;
76063;SDS011;64762;52.006;8.424;2023-06-22T09:29:22;19.70;;;13.10;;
76063;SDS011;64762;52.006;8.424;2023-06-22T09:31:47;21.53;;;13.87;;
76063;SDS011;64762;52.006;8.424;2023-06-22T09:34:13;23.27;;;13.87;;
76063;SDS011;64762;52.006;8.424;2023-06-22T09:36:38;23.90;;;12.87;;
76063;SDS011;64762;52.006;8.424;2023-06-22T09:39:04;25.85;;;14.43;;
76063;SDS011;64762;52.006;8.424;2023-06-22T09:41:31;23.30;;;15.07;;
76063;SDS011;64762;52.006;8.424;2023-06-22T09:43:56;22.07;;;15.33;;
76063;SDS011;64762;52.006;8.424;2023-06-22T09:46:22;22.83;;;15.30;;
76063;SDS011;64762;52.006;8.424;2023-06-22T09:48:50;18.83;;;13.05;;
76063;SDS011;64762;52.006;8.424;2023-06-22T09:51:15;19.87;;;13.10;;
76063;SDS011;64762;52.006;8.424;2023-06-22T09:53:40;19.07;;;11.90;;
76063;SDS011;64762;52.006;8.424;2023-06-22T09:56:05;17.93;;;11.67;;
76063;SDS011;64762;52.006;8.424;2023-06-22T09:58:31;21.23;;;12.45;;
76063;SDS011;64762;52.006;8.424;2023-06-22T10:00:56;20.87;;;11.60;;
76063;SDS011;64762;52.006;8.424;2023-06-22T10:03:22;14.57;;;10.27;;
76063;SDS011;64762;52.006;8.424;2023-06-22T10:05:47;16.83;;;10.25;;
76063;SDS011;64762;52.006;8.424;2023-06-22T10:08:13;21.73;;;12.93;;
76063;SDS011;64762;52.006;8.424;2023-06-22T10:10:38;20.83;;;12.83;;
76063;SDS011;64762;52.006;8.424;2023-06-22T10:13:10;16.87;;;12.03;;
76063;SDS011;64762;52.006;8.424;2023-06-22T10:15:36;14.70;;;9.88;;
76063;SDS011;64762;52.006;8.424;2023-06-22T10:18:02;16.08;;;10.57;;
76063;SDS011;64762;52.006;8.424;2023-06-22T10:20:27;15.40;;;9.95;;
76063;SDS011;64762;52.006;8.424;2023-06-22T10:22:53;13.82;;;9.68;;
76063;SDS011;64762;52.006;8.424;2023-06-22T10:25:18;17.55;;;10.43;;
76063;SDS011;64762;52.006;8.424;2023-06-22T10:27:44;12.63;;;9.33;;
76063;SDS011;64762;52.006;8.424;2023-06-22T10:30:10;16.37;;;9.63;;
76063;SDS011;64762;52.006;8.424;2023-06-22T10:32:37;14.88;;;9.52;;
76063;SDS011;64762;52.006;8.424;2023-06-22T10:35:03;16.05;;;10.32;;
76063;SDS011;64762;52.006;8.424;2023-06-22T10:37:29;15.98;;;10.75;;
76063;SDS011;64762;52.006;8.424;2023-06-22T10:39:54;16.00;;;9.37;;
76063;SDS011;64762;52.006;8.424;2023-06-22T10:42:19;17.53;;;10.57;;
76063;SDS011;64762;52.006;8.424;2023-06-22T10:44:45;18.67;;;11.50;;
76063;SDS011;64762;52.006;8.424;2023-06-22T10:47:11;14.93;;;9.73;;
76063;SDS011;64762;52.006;8.424;2023-06-22T10:49:39;16.63;;;10.43;;
76063;SDS011;64762;52.006;8.424;2023-06-22T10:52:08;15.85;;;10.25;;
76063;SDS011;64762;52.006;8.424;2023-06-22T10:54:34;15.00;;;9.40;;
76063;SDS011;64762;52.006;8.424;2023-06-22T10:57:00;15.90;;;10.02;;
76063;SDS011;64762;52.006;8.424;2023-06-22T10:59:26;13.48;;;9.48;;
76063;SDS011;64762;52.006;8.424;2023-06-22T11:01:52;15.35;;;11.02;;
76063;SDS011;64762;52.006;8.424;2023-06-22T11:04:18;15.32;;;10.38;;
76063;SDS011;64762;52.006;8.424;2023-06-22T11:06:43;15.70;;;10.73;;
76063;SDS011;64762;52.006;8.424;2023-06-22T11:09:08;17.05;;;10.23;;
76063;SDS011;64762;52.006;8.424;2023-06-22T11:11:34;14.57;;;8.97;;
76063;SDS011;64762;52.006;8.424;2023-06-22T11:13:59;16.00;;;10.93;;
76063;SDS011;64762;52.006;8.424;2023-06-22T11:16:24;20.00;;;11.13;;
76063;SDS011;64762;52.006;8.424;2023-06-22T11:18:50;20.30;;;11.67;;
76063;SDS011;64762;52.006;8.424;2023-06-22T11:21:15;18.83;;;11.23;;
76063;SDS011;64762;52.006;8.424;2023-06-22T11:23:41;17.40;;;11.32;;
76063;SDS011;64762;52.006;8.424;2023-06-22T11:26:07;16.13;;;11.38;;
76063;SDS011;64762;52.006;8.424;2023-06-22T11:28:32;17.45;;;9.75;;
76063;SDS011;64762;52.006;8.424;2023-06-22T11:30:58;16.55;;;11.10;;
76063;SDS011;64762;52.006;8.424;2023-06-22T11:33:23;17.08;;;10.55;;
76063;SDS011;64762;52.006;8.424;2023-06-22T11:35:49;18.03;;;11.43;;
76063;SDS011;64762;52.006;8.424;2023-06-22T11:38:14;15.00;;;9.90;;
76063;SDS011;64762;52.006;8.424;2023-06-22T11:40:39;14.13;;;10.03;;
76063;SDS011;64762;52.006;8.424;2023-06-22T11:43:05;15.57;;;11.07;;
76063;SDS011;64762;52.006;8.424;2023-06-22T11:45:30;20.03;;;11.67;;
76063;SDS011;64762;52.006;8.424;2023-06-22T11:47:55;17.57;;;11.37;;
76063;SDS011;64762;52.006;8.424;2023-06-22T11:50:21;16.02;;;11.57;;
76063;SDS011;64762;52.006;8.424;2023-06-22T11:52:46;17.40;;;11.23;;
76063;SDS011;64762;52.006;8.424;2023-06-22T11:55:11;17.80;;;11.75;;
76063;SDS011;64762;52.006;8.424;2023-06-22T11:57:37;15.87;;;11.10;;
76063;SDS011;64762;52.006;8.424;2023-06-22T12:00:03;17.80;;;11.52;;
76063;SDS011;64762;52.006;8.424;2023-06-22T12:02:41;19.02;;;12.05;;
76063;SDS011;64762;52.006;8.424;2023-06-22T12:05:06;16.85;;;10.30;;
76063;SDS011;64762;52.006;8.424;2023-06-22T12:07:33;17.17;;;11.07;;
76063;SDS011;64762;52.006;8.424;2023-06-22T12:09:58;15.88;;;10.02;;
76063;SDS011;64762;52.006;8.424;2023-06-22T12:12:24;22.20;;;14.63;;
76063;SDS011;64762;52.006;8.424;2023-06-22T12:14:49;19.60;;;13.38;;
76063;SDS011;64762;52.006;8.424;2023-06-22T12:17:14;17.70;;;11.50;;
76063;SDS011;64762;52.006;8.424;2023-06-22T12:19:39;22.03;;;14.20;;
76063;SDS011;64762;52.006;8.424;2023-06-22T12:22:05;19.90;;;13.57;;
76063;SDS011;64762;52.006;8.424;2023-06-22T12:24:30;17.80;;;11.97;;
76063;SDS011;64762;52.006;8.424;2023-06-22T12:26:55;20.60;;;13.37;;
76063;SDS011;64762;52.006;8.424;2023-06-22T12:29:22;19.33;;;12.55;;
76063;SDS011;64762;52.006;8.424;2023-06-22T12:31:47;20.17;;;12.77;;
76063;SDS011;64762;52.006;8.424;2023-06-22T12:34:12;17.70;;;12.53;;
76063;SDS011;64762;52.006;8.424;2023-06-22T12:36:38;17.97;;;13.07;;
76063;SDS011;64762;52.006;8.424;2023-06-22T12:39:03;19.47;;;12.80;;
76063;SDS011;64762;52.006;8.424;2023-06-22T12:41:28;20.55;;;12.65;;
76063;SDS011;64762;52.006;8.424;2023-06-22T12:43:54;18.37;;;12.63;;
76063;SDS011;64762;52.006;8.424;2023-06-22T12:46:19;20.47;;;12.37;;
76063;SDS011;64762;52.006;8.424;2023-06-22T12:48:44;18.83;;;13.03;;
76063;SDS011;64762;52.006;8.424;2023-06-22T12:51:10;20.33;;;12.20;;
76063;SDS011;64762;52.006;8.424;2023-06-22T12:53:35;20.63;;;13.67;;
76063;SDS011;64762;52.006;8.424;2023-06-22T12:56:00;22.60;;;14.23;;
76063;SDS011;64762;52.006;8.424;2023-06-22T12:58:26;25.07;;;15.83;;
76063;SDS011;64762;52.006;8.424;2023-06-22T13:00:51;23.20;;;16.80;;
76063;SDS011;64762;52.006;8.424;2023-06-22T13:03:16;23.87;;;16.73;;
76063;SDS011;64762;52.006;8.424;2023-06-22T13:05:42;25.83;;;17.50;;
76063;SDS011;64762;52.006;8.424;2023-06-22T13:08:07;26.30;;;17.53;;
76063;SDS011;64762;52.006;8.424;2023-06-22T13:10:33;33.58;;;20.48;;
76063;SDS011;64762;52.006;8.424;2023-06-22T13:12:58;29.00;;;18.98;;
76063;SDS011;64762;52.006;8.424;2023-06-22T13:15:26;31.48;;;20.45;;
76063;SDS011;64762;52.006;8.424;2023-06-22T13:17:52;34.92;;;20.10;;
76063;SDS011;64762;52.006;8.424;2023-06-22T13:20:17;33.53;;;19.87;;
76063;SDS011;64762;52.006;8.424;2023-06-22T13:22:43;29.38;;;19.45;;
76063;SDS011;64762;52.006;8.424;2023-06-22T13:25:08;34.00;;;19.92;;
76063;SDS011;64762;52.006;8.424;2023-06-22T13:27:37;32.65;;;19.65;;
76063;SDS011;64762;52.006;8.424;2023-06-22T13:30:03;35.80;;;20.15;;
76063;SDS011;64762;52.006;8.424;2023-06-22T13:32:28;36.80;;;21.63;;
76063;SDS011;64762;52.006;8.424;2023-06-22T13:34:57;40.83;;;21.30;;
76063;SDS011;64762;52.006;8.424;2023-06-22T13:37:22;28.20;;;19.48;;
76063;SDS011;64762;52.006;8.424;2023-06-22T13:39:47;32.97;;;21.50;;
76063;SDS011;64762;52.006;8.424;2023-06-22T13:42:13;36.17;;;20.63;;
76063;SDS011;64762;52.006;8.424;2023-06-22T13:44:38;32.57;;;21.07;;
76063;SDS011;64762;52.006;8.424;2023-06-22T13:47:03;35.07;;;21.17;;
76063;SDS011;64762;52.006;8.424;2023-06-22T13:49:29;30.60;;;19.92;;
76063;SDS011;64762;52.006;8.424;2023-06-22T13:51:55;33.00;;;20.40;;
76063;SDS011;64762;52.006;8.424;2023-06-22T13:54:20;35.97;;;20.23;;
76063;SDS011;64762;52.006;8.424;2023-06-22T13:56:46;38.92;;;22.30;;
76063;SDS011;64762;52.006;8.424;2023-06-22T13:59:11;34.70;;;21.40;;
76063;SDS011;64762;52.006;8.424;2023-06-22T14:01:37;39.17;;;22.57;;
76063;SDS011;64762;52.006;8.424;2023-06-22T14:04:04;35.28;;;22.42;;
76063;SDS011;64762;52.006;8.424;2023-06-22T14:06:30;34.37;;;20.70;;
76063;SDS011;64762;52.006;8.424;2023-06-22T14:08:55;33.30;;;21.10;;
76063;SDS011;64762;52.006;8.424;2023-06-22T14:11:21;33.03;;;20.42;;
76063;SDS011;64762;52.006;8.424;2023-06-22T14:13:46;37.30;;;22.80;;
76063;SDS011;64762;52.006;8.424;2023-06-22T14:16:11;33.90;;;21.90;;
76063;SDS011;64762;52.006;8.424;2023-06-22T14:18:37;37.77;;;23.57;;
76063;SDS011;64762;52.006;8.424;2023-06-22T14:21:02;37.33;;;23.27;;
76063;SDS011;64762;52.006;8.424;2023-06-22T14:23:27;36.30;;;23.40;;
76063;SDS011;64762;52.006;8.424;2023-06-22T14:25:52;38.53;;;23.67;;
76063;SDS011;64762;52.006;8.424;2023-06-22T14:28:18;38.77;;;24.07;;
76063;SDS011;64762;52.006;8.424;2023-06-22T14:30:43;39.53;;;23.47;;
76063;SDS011;64762;52.006;8.424;2023-06-22T14:33:08;33.17;;;20.80;;
76063;SDS011;64762;52.006;8.424;2023-06-22T14:35:34;35.77;;;22.23;;
76063;SDS011;64762;52.006;8.424;2023-06-22T14:37:59;36.40;;;22.67;;
76063;SDS011;64762;52.006;8.424;2023-06-22T14:40:24;35.47;;;23.03;;
76063;SDS011;64762;52.006;8.424;2023-06-22T14:42:50;36.23;;;23.60;;
76063;SDS011;64762;52.006;8.424;2023-06-22T14:45:15;35.87;;;22.53;;
76063;SDS011;64762;52.006;8.424;2023-06-22T14:47:40;35.93;;;21.43;;
76063;SDS011;64762;52.006;8.424;2023-06-22T14:50:06;33.80;;;21.63;;
76063;SDS011;64762;52.006;8.424;2023-06-22T14:52:31;37.58;;;23.90;;
76063;SDS011;64762;52.006;8.424;2023-06-22T14:54:56;37.80;;;23.47;;
76063;SDS011;64762;52.006;8.424;2023-06-22T14:57:22;34.25;;;21.05;;
76063;SDS011;64762;52.006;8.424;2023-06-22T14:59:48;36.50;;;21.77;;
76063;SDS011;64762;52.006;8.424;2023-06-22T15:02:16;36.10;;;21.45;;
76063;SDS011;64762;52.006;8.424;2023-06-22T15:04:41;30.10;;;20.02;;
76063;SDS011;64762;52.006;8.424;2023-06-22T15:07:06;33.03;;;19.53;;
76063;SDS011;64762;52.006;8.424;2023-06-22T15:09:32;34.07;;;20.83;;